sensor_id;sensor_type;location;lat;lon;timestamp;pressure;altitude;pressure_sealevel;temperature;humidity
14117;BME280;7137;51.436;6.544;2023-03-19T00:00:53;100731.72;;;13.30;82.38
14117;BME280;7137;51.436;6.544;2023-03-19T00:03:55;100730.75;;;13.32;82.35
14117;BME280;7137;51.436;6.544;2023-03-19T00:06:58;100724.72;;;13.30;82.85
14117;BME280;7137;51.436;6.544;2023-03-19T00:10:00;100717.22;;;13.21;83.66
14117;BME280;7137;51.436;6.544;2023-03-19T00:13:02;100717.34;;;13.18;82.65
14117;BME280;7137;51.436;6.544;2023-03-19T00:16:04;100721.84;;;13.15;85.19
14117;BME280;7137;51.436;6.544;2023-03-19T00:19:06;100723.88;;;13.08;84.17
14117;BME280;7137;51.436;6.544;2023-03-19T00:22:09;100730.22;;;13.02;84.60
14117;BME280;7137;51.436;6.544;2023-03-19T00:25:11;100732.91;;;13.01;83.00
14117;BME280;7137;51.436;6.544;2023-03-19T00:28:13;100726.94;;;12.97;85.21
14117;BME280;7137;51.436;6.544;2023-03-19T00:31:15;100728.72;;;12.97;84.16
14117;BME280;7137;51.436;6.544;2023-03-19T00:34:17;100717.47;;;12.93;85.31
14117;BME280;7137;51.436;6.544;2023-03-19T00:37:20;100722.94;;;12.89;83.79
14117;BME280;7137;51.436;6.544;2023-03-19T00:40:21;100722.22;;;12.85;85.16
14117;BME280;7137;51.436;6.544;2023-03-19T00:43:23;100727.63;;;12.81;85.94
14117;BME280;7137;51.436;6.544;2023-03-19T00:46:25;100719.09;;;12.75;85.65
14117;BME280;7137;51.436;6.544;2023-03-19T00:49:26;100715.88;;;12.69;87.20
14117;BME280;7137;51.436;6.544;2023-03-19T00:52:29;100716.19;;;12.61;86.77
14117;BME280;7137;51.436;6.544;2023-03-19T00:55:31;100714.66;;;12.56;87.16
14117;BME280;7137;51.436;6.544;2023-03-19T00:58:33;100708.91;;;12.46;86.12
14117;BME280;7137;51.436;6.544;2023-03-19T01:01:35;100725.75;;;12.40;85.81
14117;BME280;7137;51.436;6.544;2023-03-19T01:04:37;100711.09;;;12.35;86.15
14117;BME280;7137;51.436;6.544;2023-03-19T01:07:40;100727.06;;;12.29;85.22
14117;BME280;7137;51.436;6.544;2023-03-19T01:10:41;100727.53;;;12.16;87.48
14117;BME280;7137;51.436;6.544;2023-03-19T01:13:43;100719.59;;;12.18;87.19
14117;BME280;7137;51.436;6.544;2023-03-19T01:16:45;100720.97;;;12.05;87.47
14117;BME280;7137;51.436;6.544;2023-03-19T01:19:47;100726.34;;;12.02;88.43
14117;BME280;7137;51.436;6.544;2023-03-19T01:22:53;100722.00;;;12.01;88.65
14117;BME280;7137;51.436;6.544;2023-03-19T01:25:55;100713.06;;;12.06;87.74
14117;BME280;7137;51.436;6.544;2023-03-19T01:28:57;100719.00;;;12.11;88.06
14117;BME280;7137;51.436;6.544;2023-03-19T01:31:59;100714.50;;;12.15;88.36
14117;BME280;7137;51.436;6.544;2023-03-19T01:35:00;100709.13;;;12.18;89.00
14117;BME280;7137;51.436;6.544;2023-03-19T01:38:03;100716.88;;;12.21;88.21
14117;BME280;7137;51.436;6.544;2023-03-19T01:41:05;100706.56;;;12.16;89.70
14117;BME280;7137;51.436;6.544;2023-03-19T01:44:22;100710.22;;;12.12;91.36
14117;BME280;7137;51.436;6.544;2023-03-19T01:47:29;100712.28;;;12.04;91.98
14117;BME280;7137;51.436;6.544;2023-03-19T01:50:38;100700.28;;;11.99;92.37
14117;BME280;7137;51.436;6.544;2023-03-19T01:53:44;100712.28;;;12.04;92.86
14117;BME280;7137;51.436;6.544;2023-03-19T01:56:50;100713.47;;;12.19;92.22
14117;BME280;7137;51.436;6.544;2023-03-19T01:59:55;100716.19;;;12.16;91.41
14117;BME280;7137;51.436;6.544;2023-03-19T02:02:59;100711.19;;;12.10;93.26
14117;BME280;7137;51.436;6.544;2023-03-19T02:06:01;100705.16;;;12.08;92.80
14117;BME280;7137;51.436;6.544;2023-03-19T02:09:04;100707.72;;;12.09;92.55
14117;BME280;7137;51.436;6.544;2023-03-19T02:12:07;100715.69;;;12.06;93.65
14117;BME280;7137;51.436;6.544;2023-03-19T02:15:10;100710.50;;;12.05;93.63
14117;BME280;7137;51.436;6.544;2023-03-19T02:18:12;100711.53;;;12.01;94.12
14117;BME280;7137;51.436;6.544;2023-03-19T02:21:15;100706.13;;;12.05;94.70
14117;BME280;7137;51.436;6.544;2023-03-19T02:24:23;100705.28;;;12.05;95.22
14117;BME280;7137;51.436;6.544;2023-03-19T02:27:27;100702.66;;;12.05;94.35
14117;BME280;7137;51.436;6.544;2023-03-19T02:30:31;100703.38;;;12.08;94.31
14117;BME280;7137;51.436;6.544;2023-03-19T02:33:33;100704.03;;;12.15;94.20
14117;BME280;7137;51.436;6.544;2023-03-19T02:36:38;100700.16;;;12.02;94.11
14117;BME280;7137;51.436;6.544;2023-03-19T02:39:48;100709.47;;;12.09;93.78
14117;BME280;7137;51.436;6.544;2023-03-19T02:42:53;100700.56;;;12.14;95.01
14117;BME280;7137;51.436;6.544;2023-03-19T02:45:55;100696.22;;;12.13;95.34
14117;BME280;7137;51.436;6.544;2023-03-19T02:48:57;100695.25;;;12.16;94.07
14117;BME280;7137;51.436;6.544;2023-03-19T02:51:59;100699.44;;;12.20;94.65
14117;BME280;7137;51.436;6.544;2023-03-19T02:55:01;100695.13;;;12.19;93.93
14117;BME280;7137;51.436;6.544;2023-03-19T02:58:04;100702.91;;;12.21;94.40
14117;BME280;7137;51.436;6.544;2023-03-19T03:01:06;100712.41;;;12.23;93.27
14117;BME280;7137;51.436;6.544;2023-03-19T03:04:07;100701.03;;;12.24;94.59
14117;BME280;7137;51.436;6.544;2023-03-19T03:11:09;100712.38;;;12.25;93.21
14117;BME280;7137;51.436;6.544;2023-03-19T03:14:12;100702.00;;;12.22;93.83
14117;BME280;7137;51.436;6.544;2023-03-19T03:17:14;100710.78;;;12.21;93.59
14117;BME280;7137;51.436;6.544;2023-03-19T03:20:16;100706.31;;;12.23;92.70
14117;BME280;7137;51.436;6.544;2023-03-19T03:23:19;100717.63;;;12.25;92.41
14117;BME280;7137;51.436;6.544;2023-03-19T03:26:21;100713.91;;;12.30;92.12
14117;BME280;7137;51.436;6.544;2023-03-19T03:29:24;100711.16;;;12.33;91.62
14117;BME280;7137;51.436;6.544;2023-03-19T03:32:25;100718.09;;;12.34;90.96
14117;BME280;7137;51.436;6.544;2023-03-19T03:35:27;100711.66;;;12.43;91.19
14117;BME280;7137;51.436;6.544;2023-03-19T03:38:28;100715.00;;;12.46;88.72
14117;BME280;7137;51.436;6.544;2023-03-19T03:41:31;100723.28;;;12.36;89.53
14117;BME280;7137;51.436;6.544;2023-03-19T03:44:34;100722.16;;;12.19;90.61
14117;BME280;7137;51.436;6.544;2023-03-19T03:47:36;100729.22;;;12.41;90.15
14117;BME280;7137;51.436;6.544;2023-03-19T03:50:39;100728.91;;;12.48;90.04
14117;BME280;7137;51.436;6.544;2023-03-19T03:53:40;100726.84;;;12.57;89.13
14117;BME280;7137;51.436;6.544;2023-03-19T03:56:42;100725.94;;;12.58;90.08
14117;BME280;7137;51.436;6.544;2023-03-19T03:59:45;100729.22;;;12.63;89.05
14117;BME280;7137;51.436;6.544;2023-03-19T04:02:46;100724.47;;;12.72;89.07
14117;BME280;7137;51.436;6.544;2023-03-19T04:05:47;100724.41;;;12.74;88.23
14117;BME280;7137;51.436;6.544;2023-03-19T04:08:49;100728.78;;;12.73;88.15
14117;BME280;7137;51.436;6.544;2023-03-19T04:11:51;100732.31;;;12.72;88.67
14117;BME280;7137;51.436;6.544;2023-03-19T04:14:53;100729.66;;;12.74;88.05
14117;BME280;7137;51.436;6.544;2023-03-19T04:17:55;100728.66;;;12.76;89.22
14117;BME280;7137;51.436;6.544;2023-03-19T04:20:57;100740.06;;;12.75;87.23
14117;BME280;7137;51.436;6.544;2023-03-19T04:23:58;100742.31;;;12.85;87.73
14117;BME280;7137;51.436;6.544;2023-03-19T04:27:01;100745.13;;;12.80;87.66
14117;BME280;7137;51.436;6.544;2023-03-19T04:30:05;100746.53;;;12.89;87.16
14117;BME280;7137;51.436;6.544;2023-03-19T04:33:06;100750.91;;;12.88;87.88
14117;BME280;7137;51.436;6.544;2023-03-19T04:36:08;100750.84;;;12.90;87.13
14117;BME280;7137;51.436;6.544;2023-03-19T04:39:09;100760.53;;;12.88;86.87
14117;BME280;7137;51.436;6.544;2023-03-19T04:42:11;100762.38;;;12.86;87.47
14117;BME280;7137;51.436;6.544;2023-03-19T04:45:14;100765.91;;;12.85;88.42
14117;BME280;7137;51.436;6.544;2023-03-19T04:48:16;100763.88;;;12.91;87.01
14117;BME280;7137;51.436;6.544;2023-03-19T04:51:18;100762.13;;;12.92;86.27
14117;BME280;7137;51.436;6.544;2023-03-19T04:54:20;100768.34;;;12.89;87.61
14117;BME280;7137;51.436;6.544;2023-03-19T04:57:22;100767.28;;;12.93;86.63
14117;BME280;7137;51.436;6.544;2023-03-19T05:00:25;100764.28;;;12.82;88.48
14117;BME280;7137;51.436;6.544;2023-03-19T05:03:27;100770.31;;;12.84;87.10
14117;BME280;7137;51.436;6.544;2023-03-19T05:06:29;100772.00;;;12.85;87.18
14117;BME280;7137;51.436;6.544;2023-03-19T05:09:31;100783.16;;;12.90;88.29
14117;BME280;7137;51.436;6.544;2023-03-19T05:12:32;100787.25;;;12.75;87.88
14117;BME280;7137;51.436;6.544;2023-03-19T05:15:35;100775.03;;;12.53;89.18
14117;BME280;7137;51.436;6.544;2023-03-19T05:18:39;100778.94;;;12.42;90.23
14117;BME280;7137;51.436;6.544;2023-03-19T05:21:42;100785.94;;;12.64;90.02
14117;BME280;7137;51.436;6.544;2023-03-19T05:24:43;100780.63;;;12.67;90.91
14117;BME280;7137;51.436;6.544;2023-03-19T05:27:45;100780.72;;;12.64;91.39
14117;BME280;7137;51.436;6.544;2023-03-19T05:30:48;100784.09;;;12.67;92.03
14117;BME280;7137;51.436;6.544;2023-03-19T05:33:49;100779.56;;;12.71;91.95
14117;BME280;7137;51.436;6.544;2023-03-19T05:36:51;100781.56;;;12.64;91.04
14117;BME280;7137;51.436;6.544;2023-03-19T05:39:52;100779.72;;;12.44;91.54
14117;BME280;7137;51.436;6.544;2023-03-19T05:42:53;100791.78;;;12.48;91.85
14117;BME280;7137;51.436;6.544;2023-03-19T05:45:57;100794.88;;;12.36;93.32
14117;BME280;7137;51.436;6.544;2023-03-19T05:48:58;100794.66;;;12.19;96.50
14117;BME280;7137;51.436;6.544;2023-03-19T05:52:00;100796.75;;;12.33;94.22
14117;BME280;7137;51.436;6.544;2023-03-19T05:55:01;100796.81;;;12.31;95.24
14117;BME280;7137;51.436;6.544;2023-03-19T05:58:03;100798.53;;;12.32;97.44
14117;BME280;7137;51.436;6.544;2023-03-19T06:01:08;100800.88;;;12.40;96.90
14117;BME280;7137;51.436;6.544;2023-03-19T06:04:09;100802.09;;;12.53;95.77
14117;BME280;7137;51.436;6.544;2023-03-19T06:07:11;100796.81;;;12.55;96.55
14117;BME280;7137;51.436;6.544;2023-03-19T06:10:12;100808.22;;;12.54;96.03
14117;BME280;7137;51.436;6.544;2023-03-19T06:13:14;100816.66;;;12.60;94.99
14117;BME280;7137;51.436;6.544;2023-03-19T06:16:17;100814.75;;;12.42;97.00
14117;BME280;7137;51.436;6.544;2023-03-19T06:19:18;100822.88;;;12.58;95.94
14117;BME280;7137;51.436;6.544;2023-03-19T06:22:20;100819.94;;;12.67;93.80
14117;BME280;7137;51.436;6.544;2023-03-19T06:25:21;100819.94;;;12.67;95.06
14117;BME280;7137;51.436;6.544;2023-03-19T06:28:23;100818.03;;;12.70;96.22
14117;BME280;7137;51.436;6.544;2023-03-19T06:31:26;100819.28;;;12.60;97.01
14117;BME280;7137;51.436;6.544;2023-03-19T06:34:30;100812.22;;;12.62;97.82
14117;BME280;7137;51.436;6.544;2023-03-19T06:37:32;100823.09;;;12.75;95.88
14117;BME280;7137;51.436;6.544;2023-03-19T06:40:36;100827.53;;;12.73;96.52
14117;BME280;7137;51.436;6.544;2023-03-19T06:43:41;100829.31;;;12.72;96.23
14117;BME280;7137;51.436;6.544;2023-03-19T06:47:09;100836.06;;;12.78;95.67
14117;BME280;7137;51.436;6.544;2023-03-19T06:50:18;100832.31;;;12.85;94.85
14117;BME280;7137;51.436;6.544;2023-03-19T06:53:23;100845.34;;;12.87;95.38
14117;BME280;7137;51.436;6.544;2023-03-19T06:56:24;100847.03;;;12.66;94.64
14117;BME280;7137;51.436;6.544;2023-03-19T06:59:26;100846.28;;;12.86;95.93
14117;BME280;7137;51.436;6.544;2023-03-19T07:02:29;100842.72;;;12.41;98.15
14117;BME280;7137;51.436;6.544;2023-03-19T07:05:30;100845.75;;;12.76;95.53
14117;BME280;7137;51.436;6.544;2023-03-19T07:08:32;100852.97;;;12.93;96.45
14117;BME280;7137;51.436;6.544;2023-03-19T07:11:34;100856.50;;;12.92;95.21
14117;BME280;7137;51.436;6.544;2023-03-19T07:14:35;100847.53;;;12.75;95.51
14117;BME280;7137;51.436;6.544;2023-03-19T07:17:38;100858.53;;;12.85;95.65
14117;BME280;7137;51.436;6.544;2023-03-19T07:20:39;100868.34;;;13.02;95.84
14117;BME280;7137;51.436;6.544;2023-03-19T07:23:41;100867.09;;;13.12;94.26
14117;BME280;7137;51.436;6.544;2023-03-19T07:26:42;100865.81;;;13.44;95.13
14117;BME280;7137;51.436;6.544;2023-03-19T07:29:45;100872.19;;;13.81;92.94
14117;BME280;7137;51.436;6.544;2023-03-19T07:32:48;100869.22;;;14.09;91.00
14117;BME280;7137;51.436;6.544;2023-03-19T07:35:49;100888.59;;;14.26;88.88
14117;BME280;7137;51.436;6.544;2023-03-19T07:38:51;100887.31;;;14.35;88.48
14117;BME280;7137;51.436;6.544;2023-03-19T07:41:52;100884.50;;;14.40;87.40
14117;BME280;7137;51.436;6.544;2023-03-19T07:44:54;100884.88;;;14.31;88.39
14117;BME280;7137;51.436;6.544;2023-03-19T07:47:57;100883.78;;;14.36;87.68
14117;BME280;7137;51.436;6.544;2023-03-19T07:51:02;100883.47;;;14.44;87.19
14117;BME280;7137;51.436;6.544;2023-03-19T07:54:04;100885.09;;;14.26;88.86
14117;BME280;7137;51.436;6.544;2023-03-19T07:57:05;100891.44;;;14.61;86.77
14117;BME280;7137;51.436;6.544;2023-03-19T08:00:08;100886.00;;;14.66;86.64
14117;BME280;7137;51.436;6.544;2023-03-19T08:03:12;100882.41;;;15.04;86.01
14117;BME280;7137;51.436;6.544;2023-03-19T08:06:13;100893.28;;;15.34;85.28
14117;BME280;7137;51.436;6.544;2023-03-19T08:09:15;100894.75;;;15.40;82.82
14117;BME280;7137;51.436;6.544;2023-03-19T08:12:16;100900.75;;;15.61;82.45
14117;BME280;7137;51.436;6.544;2023-03-19T08:15:18;100909.41;;;15.82;80.54
14117;BME280;7137;51.436;6.544;2023-03-19T08:18:21;100905.63;;;16.38;79.44
14117;BME280;7137;51.436;6.544;2023-03-19T08:21:23;100918.03;;;16.18;76.82
14117;BME280;7137;51.436;6.544;2023-03-19T08:24:24;100925.66;;;16.24;78.31
14117;BME280;7137;51.436;6.544;2023-03-19T08:27:26;100926.56;;;15.89;80.09
14117;BME280;7137;51.436;6.544;2023-03-19T08:30:29;100920.88;;;15.81;81.02
14117;BME280;7137;51.436;6.544;2023-03-19T08:33:32;100919.28;;;16.28;78.44
14117;BME280;7137;51.436;6.544;2023-03-19T08:36:34;100917.94;;;17.50;76.08
14117;BME280;7137;51.436;6.544;2023-03-19T08:39:35;100920.50;;;17.98;70.83
14117;BME280;7137;51.436;6.544;2023-03-19T08:42:38;100923.06;;;18.86;67.79
14117;BME280;7137;51.436;6.544;2023-03-19T08:45:42;100925.16;;;19.64;64.69
14117;BME280;7137;51.436;6.544;2023-03-19T08:48:44;100919.78;;;18.24;68.01
14117;BME280;7137;51.436;6.544;2023-03-19T08:51:46;100926.13;;;17.30;71.13
14117;BME280;7137;51.436;6.544;2023-03-19T08:54:48;100925.25;;;16.98;73.01
14117;BME280;7137;51.436;6.544;2023-03-19T08:57:50;100926.09;;;16.32;76.01
14117;BME280;7137;51.436;6.544;2023-03-19T09:00:51;100927.53;;;16.05;76.70
14117;BME280;7137;51.436;6.544;2023-03-19T09:03:54;100931.16;;;15.85;80.13
14117;BME280;7137;51.436;6.544;2023-03-19T09:06:56;100935.41;;;15.70;80.40
14117;BME280;7137;51.436;6.544;2023-03-19T09:09:57;100940.34;;;15.40;81.42
14117;BME280;7137;51.436;6.544;2023-03-19T09:12:59;100939.44;;;15.23;81.56
14117;BME280;7137;51.436;6.544;2023-03-19T09:16:01;100945.66;;;15.22;82.97
14117;BME280;7137;51.436;6.544;2023-03-19T09:19:04;100938.78;;;15.18;83.30
14117;BME280;7137;51.436;6.544;2023-03-19T09:22:06;100942.31;;;14.60;85.11
14117;BME280;7137;51.436;6.544;2023-03-19T09:25:08;100944.22;;;14.57;85.86
14117;BME280;7137;51.436;6.544;2023-03-19T09:28:10;100950.03;;;14.83;84.39
14117;BME280;7137;51.436;6.544;2023-03-19T09:31:11;100949.66;;;15.48;83.23
14117;BME280;7137;51.436;6.544;2023-03-19T09:34:14;100952.44;;;15.63;79.74
14117;BME280;7137;51.436;6.544;2023-03-19T09:37:16;100960.75;;;15.90;79.21
14117;BME280;7137;51.436;6.544;2023-03-19T09:40:21;100962.34;;;17.60;75.65
14117;BME280;7137;51.436;6.544;2023-03-19T09:43:51;100967.00;;;19.73;62.70
14117;BME280;7137;51.436;6.544;2023-03-19T09:46:58;100963.38;;;18.03;68.48
14117;BME280;7137;51.436;6.544;2023-03-19T09:50:11;100972.97;;;17.58;70.58
14117;BME280;7137;51.436;6.544;2023-03-19T09:53:18;100979.69;;;16.50;73.65
14117;BME280;7137;51.436;6.544;2023-03-19T09:56:24;100972.66;;;16.33;73.23
14117;BME280;7137;51.436;6.544;2023-03-19T09:59:27;100979.44;;;15.86;75.17
14117;BME280;7137;51.436;6.544;2023-03-19T10:02:39;100977.28;;;15.94;78.38
14117;BME280;7137;51.436;6.544;2023-03-19T10:05:49;100977.34;;;16.44;76.93
14117;BME280;7137;51.436;6.544;2023-03-19T10:12:46;100984.47;;;17.26;67.70
14117;BME280;7137;51.436;6.544;2023-03-19T10:15:51;100986.78;;;17.63;66.82
14117;BME280;7137;51.436;6.544;2023-03-19T10:18:54;100982.25;;;17.65;65.75
14117;BME280;7137;51.436;6.544;2023-03-19T10:22:02;100990.69;;;17.25;66.53
14117;BME280;7137;51.436;6.544;2023-03-19T10:25:09;100988.75;;;17.75;64.88
14117;BME280;7137;51.436;6.544;2023-03-19T10:28:14;100980.56;;;17.48;65.60
14117;BME280;7137;51.436;6.544;2023-03-19T10:31:24;100991.63;;;18.47;64.07
14117;BME280;7137;51.436;6.544;2023-03-19T10:34:31;100988.81;;;19.35;60.46
14117;BME280;7137;51.436;6.544;2023-03-19T10:37:36;100997.47;;;18.96;60.56
14117;BME280;7137;51.436;6.544;2023-03-19T10:40:44;100995.13;;;18.91;60.11
14117;BME280;7137;51.436;6.544;2023-03-19T10:43:52;101000.34;;;18.19;60.67
14117;BME280;7137;51.436;6.544;2023-03-19T10:46:56;100994.44;;;17.68;62.38
14117;BME280;7137;51.436;6.544;2023-03-19T10:49:58;101001.75;;;17.15;64.18
14117;BME280;7137;51.436;6.544;2023-03-19T10:53:06;100999.63;;;17.22;64.48
14117;BME280;7137;51.436;6.544;2023-03-19T10:56:20;101002.94;;;17.10;65.06
14117;BME280;7137;51.436;6.544;2023-03-19T10:59:24;101008.75;;;16.83;65.87
14117;BME280;7137;51.436;6.544;2023-03-19T11:02:29;100997.25;;;17.17;64.50
14117;BME280;7137;51.436;6.544;2023-03-19T11:05:32;101003.50;;;16.99;64.36
14117;BME280;7137;51.436;6.544;2023-03-19T11:08:36;101000.03;;;17.14;63.20
14117;BME280;7137;51.436;6.544;2023-03-19T11:11:42;101004.56;;;16.45;64.43
14117;BME280;7137;51.436;6.544;2023-03-19T11:14:46;101002.22;;;16.90;64.95
14117;BME280;7137;51.436;6.544;2023-03-19T11:17:55;101011.63;;;16.79;64.88
14117;BME280;7137;51.436;6.544;2023-03-19T11:20:59;101010.72;;;16.62;66.40
14117;BME280;7137;51.436;6.544;2023-03-19T11:24:03;100999.84;;;16.69;64.86
14117;BME280;7137;51.436;6.544;2023-03-19T11:27:11;101000.94;;;16.65;66.11
14117;BME280;7137;51.436;6.544;2023-03-19T11:30:16;101002.56;;;16.67;66.45
14117;BME280;7137;51.436;6.544;2023-03-19T11:33:45;101000.78;;;16.68;65.34
14117;BME280;7137;51.436;6.544;2023-03-19T11:36:56;101002.88;;;16.78;64.71
14117;BME280;7137;51.436;6.544;2023-03-19T11:40:10;100991.44;;;17.11;65.25
14117;BME280;7137;51.436;6.544;2023-03-19T11:43:39;100987.97;;;17.73;65.03
14117;BME280;7137;51.436;6.544;2023-03-19T11:46:49;100994.69;;;18.25;62.61
14117;BME280;7137;51.436;6.544;2023-03-19T11:50:10;100995.34;;;19.44;58.08
14117;BME280;7137;51.436;6.544;2023-03-19T11:53:23;101000.66;;;19.85;57.03
14117;BME280;7137;51.436;6.544;2023-03-19T11:56:31;100991.25;;;19.52;56.96
14117;BME280;7137;51.436;6.544;2023-03-19T11:59:50;100995.13;;;19.61;55.77
14117;BME280;7137;51.436;6.544;2023-03-19T12:03:24;100988.66;;;18.81;57.23
14117;BME280;7137;51.436;6.544;2023-03-19T12:06:37;100993.13;;;18.36;57.74
14117;BME280;7137;51.436;6.544;2023-03-19T12:09:51;100989.81;;;18.33;58.26
14117;BME280;7137;51.436;6.544;2023-03-19T12:13:06;100992.34;;;19.21;57.32
14117;BME280;7137;51.436;6.544;2023-03-19T12:16:17;100988.00;;;19.06;55.83
14117;BME280;7137;51.436;6.544;2023-03-19T12:19:36;100988.78;;;18.94;57.92
14117;BME280;7137;51.436;6.544;2023-03-19T12:22:51;100991.91;;;19.15;57.88
14117;BME280;7137;51.436;6.544;2023-03-19T12:26:00;100992.34;;;19.21;54.98
14117;BME280;7137;51.436;6.544;2023-03-19T12:29:15;100993.19;;;18.65;55.54
14117;BME280;7137;51.436;6.544;2023-03-19T12:32:31;100987.81;;;19.09;56.85
14117;BME280;7137;51.436;6.544;2023-03-19T12:35:39;100989.59;;;19.23;56.53
14117;BME280;7137;51.436;6.544;2023-03-19T12:38:43;100987.50;;;19.28;54.73
14117;BME280;7137;51.436;6.544;2023-03-19T12:41:49;100989.78;;;19.34;53.82
14117;BME280;7137;51.436;6.544;2023-03-19T12:44:54;100982.69;;;19.35;55.24
14117;BME280;7137;51.436;6.544;2023-03-19T12:48:02;100982.41;;;19.11;53.90
14117;BME280;7137;51.436;6.544;2023-03-19T12:51:08;100981.56;;;18.82;55.79
14117;BME280;7137;51.436;6.544;2023-03-19T12:54:17;100986.88;;;19.10;54.03
14117;BME280;7137;51.436;6.544;2023-03-19T12:57:26;100983.25;;;19.25;53.47
14117;BME280;7137;51.436;6.544;2023-03-19T13:00:34;100985.16;;;19.23;54.64
14117;BME280;7137;51.436;6.544;2023-03-19T13:03:43;100982.56;;;19.36;52.20
14117;BME280;7137;51.436;6.544;2023-03-19T13:06:51;100985.81;;;19.68;53.51
14117;BME280;7137;51.436;6.544;2023-03-19T13:09:58;100983.91;;;19.70;50.21
14117;BME280;7137;51.436;6.544;2023-03-19T13:13:08;100996.66;;;19.37;49.20
14117;BME280;7137;51.436;6.544;2023-03-19T13:16:29;100985.44;;;18.62;52.02
14117;BME280;7137;51.436;6.544;2023-03-19T13:19:40;100992.94;;;18.39;54.55
14117;BME280;7137;51.436;6.544;2023-03-19T13:22:49;100990.78;;;18.02;55.14
14117;BME280;7137;51.436;6.544;2023-03-19T13:25:54;100986.63;;;17.50;57.08
14117;BME280;7137;51.436;6.544;2023-03-19T13:29:02;100989.75;;;17.41;58.13
14117;BME280;7137;51.436;6.544;2023-03-19T13:32:24;100983.22;;;17.48;58.53
14117;BME280;7137;51.436;6.544;2023-03-19T13:35:40;100983.88;;;17.20;56.67
14117;BME280;7137;51.436;6.544;2023-03-19T13:38:46;100976.88;;;17.67;56.70
14117;BME280;7137;51.436;6.544;2023-03-19T13:41:51;100983.72;;;18.17;56.22
14117;BME280;7137;51.436;6.544;2023-03-19T13:44:53;100978.84;;;18.39;55.58
14117;BME280;7137;51.436;6.544;2023-03-19T13:48:31;100977.44;;;18.92;51.23
14117;BME280;7137;51.436;6.544;2023-03-19T13:51:35;100979.22;;;19.06;52.36
14117;BME280;7137;51.436;6.544;2023-03-19T13:54:38;100981.13;;;19.59;51.51
14117;BME280;7137;51.436;6.544;2023-03-19T13:57:40;100978.72;;;19.69;50.07
14117;BME280;7137;51.436;6.544;2023-03-19T14:00:56;100988.25;;;19.44;51.11
14117;BME280;7137;51.436;6.544;2023-03-19T14:04:01;100984.31;;;19.09;51.51
14117;BME280;7137;51.436;6.544;2023-03-19T14:07:17;100985.06;;;18.96;52.45
14117;BME280;7137;51.436;6.544;2023-03-19T14:10:23;100991.69;;;19.18;52.62
14117;BME280;7137;51.436;6.544;2023-03-19T14:13:30;100989.69;;;19.21;52.15
14117;BME280;7137;51.436;6.544;2023-03-19T14:16:35;100986.22;;;19.07;51.73
14117;BME280;7137;51.436;6.544;2023-03-19T14:19:41;100985.28;;;18.79;52.75
14117;BME280;7137;51.436;6.544;2023-03-19T14:22:54;100990.28;;;18.98;53.46
14117;BME280;7137;51.436;6.544;2023-03-19T14:26:16;100992.75;;;19.01;49.77
14117;BME280;7137;51.436;6.544;2023-03-19T14:29:21;100990.44;;;19.23;50.54
14117;BME280;7137;51.436;6.544;2023-03-19T14:32:33;100996.19;;;19.59;50.36
14117;BME280;7137;51.436;6.544;2023-03-19T14:35:44;100995.19;;;18.76;53.44
14117;BME280;7137;51.436;6.544;2023-03-19T14:38:49;101005.13;;;18.72;54.58
14117;BME280;7137;51.436;6.544;2023-03-19T14:41:59;100994.50;;;18.28;54.14
14117;BME280;7137;51.436;6.544;2023-03-19T14:49:06;100999.94;;;18.10;54.78
14117;BME280;7137;51.436;6.544;2023-03-19T14:52:21;101002.38;;;17.68;56.28
14117;BME280;7137;51.436;6.544;2023-03-19T14:55:32;101001.69;;;17.48;57.74
14117;BME280;7137;51.436;6.544;2023-03-19T14:58:33;101005.69;;;17.24;58.11
14117;BME280;7137;51.436;6.544;2023-03-19T15:01:39;101002.69;;;17.30;58.37
14117;BME280;7137;51.436;6.544;2023-03-19T15:04:43;101010.00;;;17.09;60.55
14117;BME280;7137;51.436;6.544;2023-03-19T15:07:48;101013.41;;;17.11;60.47
14117;BME280;7137;51.436;6.544;2023-03-19T15:11:15;101007.56;;;16.89;61.28
14117;BME280;7137;51.436;6.544;2023-03-19T15:14:40;101014.88;;;16.84;60.46
14117;BME280;7137;51.436;6.544;2023-03-19T15:17:49;101014.56;;;16.90;60.57
14117;BME280;7137;51.436;6.544;2023-03-19T15:20:57;101008.25;;;16.77;59.56
14117;BME280;7137;51.436;6.544;2023-03-19T15:24:00;101006.19;;;16.82;60.43
14117;BME280;7137;51.436;6.544;2023-03-19T15:27:15;101001.94;;;16.79;59.54
14117;BME280;7137;51.436;6.544;2023-03-19T15:30:21;101011.78;;;16.58;61.06
14117;BME280;7137;51.436;6.544;2023-03-19T15:33:29;101011.94;;;16.73;59.88
14117;BME280;7137;51.436;6.544;2023-03-19T15:36:32;101020.25;;;16.65;59.08
14117;BME280;7137;51.436;6.544;2023-03-19T15:39:39;101022.56;;;16.54;60.49
14117;BME280;7137;51.436;6.544;2023-03-19T15:42:45;101023.66;;;16.32;61.32
14117;BME280;7137;51.436;6.544;2023-03-19T15:45:49;101038.47;;;16.52;60.84
14117;BME280;7137;51.436;6.544;2023-03-19T15:48:55;101038.16;;;16.24;60.65
14117;BME280;7137;51.436;6.544;2023-03-19T15:52:01;101032.38;;;16.35;61.98
14117;BME280;7137;51.436;6.544;2023-03-19T15:55:08;101034.06;;;16.53;60.94
14117;BME280;7137;51.436;6.544;2023-03-19T15:58:19;101037.72;;;16.68;59.89
14117;BME280;7137;51.436;6.544;2023-03-19T16:01:21;101036.06;;;16.82;61.56
14117;BME280;7137;51.436;6.544;2023-03-19T16:04:24;101043.88;;;17.01;61.05
14117;BME280;7137;51.436;6.544;2023-03-19T16:07:35;101043.09;;;16.99;60.65
14117;BME280;7137;51.436;6.544;2023-03-19T16:10:42;101033.47;;;16.98;59.21
14117;BME280;7137;51.436;6.544;2023-03-19T16:13:53;101045.13;;;16.94;60.06
14117;BME280;7137;51.436;6.544;2023-03-19T16:17:00;101053.22;;;16.91;61.23
14117;BME280;7137;51.436;6.544;2023-03-19T16:20:03;101059.44;;;16.90;61.30
14117;BME280;7137;51.436;6.544;2023-03-19T16:23:12;101049.25;;;16.82;60.74
14117;BME280;7137;51.436;6.544;2023-03-19T16:26:25;101053.09;;;16.77;62.12
14117;BME280;7137;51.436;6.544;2023-03-19T16:29:33;101051.81;;;16.84;62.61
14117;BME280;7137;51.436;6.544;2023-03-19T16:32:37;101061.94;;;16.76;63.38